createdAt,value
2022-12-16T00:01:25.943Z,12.48
2022-12-16T00:03:55.473Z,12.73
2022-12-16T00:06:25.025Z,11.48
2022-12-16T00:08:52.128Z,11.25
2022-12-16T00:11:19.854Z,12.45
2022-12-16T00:13:47.334Z,11.88
2022-12-16T00:16:16.410Z,12.52
2022-12-16T00:18:44.040Z,12.52
2022-12-16T00:21:11.265Z,11.63
2022-12-16T00:23:47.202Z,20.40
2022-12-16T00:26:14.414Z,12.98
2022-12-16T00:28:41.579Z,11.32
2022-12-16T00:31:08.458Z,10.88
2022-12-16T00:33:35.753Z,11.52
2022-12-16T00:36:03.158Z,11.35
2022-12-16T00:38:29.968Z,11.48
2022-12-16T00:40:56.777Z,11.15
2022-12-16T00:43:23.460Z,11.60
2022-12-16T00:45:50.618Z,12.13
2022-12-16T00:48:19.165Z,12.45
2022-12-16T00:50:55.792Z,12.27
2022-12-16T00:53:24.074Z,11.73
2022-12-16T00:55:51.351Z,11.05
2022-12-16T00:58:18.876Z,11.65
2022-12-16T01:00:45.579Z,10.02
2022-12-16T01:03:15.579Z,12.15
2022-12-16T01:05:46.171Z,11.65
2022-12-16T01:08:13.205Z,11.57
2022-12-16T01:10:39.827Z,11.27
2022-12-16T01:13:06.584Z,11.02
2022-12-16T01:15:33.201Z,12.32
2022-12-16T01:17:59.821Z,11.77
2022-12-16T01:20:26.446Z,11.90
2022-12-16T01:22:53.047Z,11.52
2022-12-16T01:25:21.564Z,11.40
2022-12-16T01:27:48.504Z,11.00
2022-12-16T01:30:15.181Z,11.20
2022-12-16T01:32:41.821Z,10.90
2022-12-16T01:35:29.500Z,10.48
2022-12-16T01:37:56.220Z,11.48
2022-12-16T01:40:24.804Z,11.52
2022-12-16T01:42:51.735Z,10.77
2022-12-16T01:45:25.221Z,11.38
2022-12-16T01:47:56.317Z,11.48
2022-12-16T01:50:23.341Z,11.43
2022-12-16T01:52:56.756Z,10.68
2022-12-16T01:55:31.600Z,11.60
2022-12-16T01:58:09.305Z,11.10
2022-12-16T02:00:38.477Z,10.85
2022-12-16T02:03:06.372Z,9.35
2022-12-16T02:05:36.366Z,10.38
2022-12-16T02:08:10.114Z,10.43
2022-12-16T02:10:39.838Z,11.23
2022-12-16T02:16:17.353Z,10.00
2022-12-16T02:19:31.140Z,10.52
2022-12-16T02:22:22.484Z,10.85
2022-12-16T02:25:26.644Z,11.48
2022-12-16T02:27:59.365Z,9.73
2022-12-16T02:31:05.516Z,10.75
2022-12-16T02:33:45.168Z,10.73
2022-12-16T02:39:20.930Z,9.73
2022-12-16T02:41:57.439Z,10.23
2022-12-16T02:44:36.284Z,10.75
2022-12-16T02:47:02.916Z,7.53
2022-12-16T02:49:30.000Z,10.35
2022-12-16T02:51:59.696Z,9.82
2022-12-16T02:54:27.963Z,9.75
2022-12-16T02:57:03.640Z,9.73
2022-12-16T02:59:42.260Z,10.18
2022-12-16T03:02:24.398Z,10.45
2022-12-16T03:05:08.668Z,9.95
2022-12-16T03:07:38.765Z,9.20
2022-12-16T03:10:10.183Z,10.68
2022-12-16T03:12:41.291Z,11.20
2022-12-16T03:15:09.248Z,9.88
2022-12-16T03:17:37.573Z,9.60
2022-12-16T03:20:16.605Z,10.07
2022-12-16T03:22:46.433Z,9.90
2022-12-16T03:25:13.980Z,9.98
2022-12-16T03:28:04.843Z,9.35
2022-12-16T03:30:47.897Z,9.07
2022-12-16T03:33:28.264Z,9.93
2022-12-16T03:36:02.046Z,10.50
2022-12-16T03:38:29.700Z,10.85
2022-12-16T03:40:58.209Z,11.00
2022-12-16T03:43:25.247Z,9.57
2022-12-16T03:45:56.812Z,9.45
2022-12-16T03:48:26.064Z,9.63
2022-12-16T03:50:52.707Z,9.52
2022-12-16T03:53:24.526Z,7.28
2022-12-16T03:55:51.114Z,8.93
2022-12-16T03:58:17.773Z,9.02
2022-12-16T04:00:44.539Z,10.30
2022-12-16T04:03:11.366Z,10.13
2022-12-16T04:05:38.429Z,9.93
2022-12-16T04:08:05.003Z,9.98
2022-12-16T04:10:50.217Z,9.80
2022-12-16T04:13:35.884Z,9.13
2022-12-16T04:16:21.351Z,9.27
2022-12-16T04:19:07.125Z,8.35
2022-12-16T04:21:52.613Z,8.80
2022-12-16T04:24:20.281Z,9.07
2022-12-16T04:27:15.072Z,8.65
2022-12-16T04:30:02.842Z,8.90
2022-12-16T04:32:49.729Z,8.43
2022-12-16T04:35:35.077Z,9.23
2022-12-16T04:38:20.517Z,9.02
2022-12-16T04:41:05.677Z,8.18
2022-12-16T04:43:51.050Z,8.95
2022-12-16T04:46:36.466Z,9.25
2022-12-16T04:49:21.860Z,9.82
2022-12-16T04:52:07.196Z,8.00
2022-12-16T04:54:52.281Z,7.95
2022-12-16T04:57:37.452Z,8.82
2022-12-16T05:00:23.816Z,8.43
2022-12-16T05:03:09.136Z,8.32
2022-12-16T05:05:55.085Z,9.60
2022-12-16T05:08:40.276Z,8.35
2022-12-16T05:11:35.887Z,8.32
2022-12-16T05:14:21.057Z,8.43
2022-12-16T05:17:06.190Z,8.88
2022-12-16T05:19:51.290Z,9.40
2022-12-16T05:22:36.502Z,8.18
2022-12-16T05:25:22.246Z,9.35
2022-12-16T05:28:12.121Z,8.30
2022-12-16T05:30:57.509Z,7.53
2022-12-16T05:33:42.796Z,8.38
2022-12-16T05:36:27.936Z,8.32
2022-12-16T05:39:13.122Z,13.80
2022-12-16T05:41:58.472Z,8.93
2022-12-16T05:44:43.774Z,9.40
2022-12-16T05:47:29.202Z,9.40
2022-12-16T05:50:14.555Z,8.25
2022-12-16T05:53:10.366Z,9.07
2022-12-16T05:55:55.700Z,8.00
2022-12-16T05:58:41.204Z,8.77
2022-12-16T06:01:27.110Z,8.63
2022-12-16T06:04:17.221Z,8.40
2022-12-16T06:07:02.967Z,8.50
2022-12-16T06:09:53.113Z,7.45
2022-12-16T06:12:41.897Z,9.68
2022-12-16T06:15:27.526Z,9.35
2022-12-16T06:18:12.479Z,8.35
2022-12-16T06:20:58.268Z,8.70
2022-12-16T06:23:43.164Z,8.38
2022-12-16T06:26:28.317Z,7.90
2022-12-16T06:29:13.695Z,8.73
2022-12-16T06:31:58.864Z,8.85
2022-12-16T06:34:44.114Z,9.30
2022-12-16T06:37:29.073Z,7.03
2022-12-16T06:40:14.000Z,8.68
2022-12-16T06:42:59.661Z,7.80
2022-12-16T06:45:45.493Z,7.97
2022-12-16T06:48:31.321Z,8.15
2022-12-16T06:51:16.633Z,7.57
2022-12-16T06:54:01.885Z,7.50
2022-12-16T06:56:47.100Z,7.63
2022-12-16T06:59:32.668Z,8.60
2022-12-16T07:02:18.235Z,7.03
2022-12-16T07:05:03.755Z,8.45
2022-12-16T07:08:05.726Z,7.88
2022-12-16T07:10:50.878Z,7.90
2022-12-16T07:13:36.138Z,9.13
2022-12-16T07:16:21.516Z,9.13
2022-12-16T07:19:06.973Z,9.13
2022-12-16T07:21:52.399Z,9.05
2022-12-16T07:24:40.076Z,7.90
2022-12-16T07:27:25.042Z,7.85
2022-12-16T07:30:10.488Z,9.02
2022-12-16T07:32:56.038Z,7.72
2022-12-16T07:35:41.191Z,7.57
2022-12-16T07:38:26.106Z,8.95
2022-12-16T07:41:11.156Z,8.98
2022-12-16T07:43:56.456Z,8.52
2022-12-16T07:46:41.625Z,8.27
2022-12-16T07:49:26.672Z,8.07
2022-12-16T07:52:11.543Z,9.23
2022-12-16T07:54:56.974Z,7.90
2022-12-16T07:57:42.197Z,8.38
2022-12-16T08:00:28.028Z,8.45
2022-12-16T08:03:13.953Z,7.30
2022-12-16T08:05:59.256Z,9.95
2022-12-16T08:08:44.429Z,10.32
2022-12-16T08:11:29.559Z,8.48
2022-12-16T08:14:14.439Z,8.20
2022-12-16T08:16:59.770Z,8.07
2022-12-16T08:19:44.688Z,7.70
2022-12-16T08:22:29.873Z,7.15
2022-12-16T08:25:15.217Z,7.35
2022-12-16T08:28:00.648Z,7.88
2022-12-16T08:30:45.951Z,8.40
2022-12-16T08:33:31.546Z,7.78
2022-12-16T08:36:17.499Z,7.72
2022-12-16T08:39:02.917Z,8.02
2022-12-16T08:41:48.269Z,7.13
2022-12-16T08:44:33.374Z,8.10
2022-12-16T08:47:18.461Z,7.93
2022-12-16T08:50:03.328Z,11.20
2022-12-16T08:52:49.125Z,8.85
2022-12-16T08:55:34.418Z,8.05
2022-12-16T08:58:19.743Z,7.45
2022-12-16T09:01:07.771Z,7.32
2022-12-16T09:03:55.276Z,7.88
2022-12-16T09:06:41.225Z,7.10
2022-12-16T09:09:27.805Z,7.78
2022-12-16T09:12:13.120Z,8.15
2022-12-16T09:14:58.296Z,8.32
2022-12-16T09:17:43.860Z,8.95
2022-12-16T09:20:28.991Z,7.40
2022-12-16T09:23:14.369Z,8.00
2022-12-16T09:25:59.709Z,8.63
2022-12-16T09:28:45.183Z,8.38
2022-12-16T09:31:30.458Z,7.60
2022-12-16T09:34:16.339Z,7.43
2022-12-16T09:37:02.475Z,7.10
2022-12-16T09:39:54.209Z,8.50
2022-12-16T09:42:49.422Z,7.35
2022-12-16T09:45:37.960Z,7.70
2022-12-16T09:48:34.088Z,7.80
2022-12-16T09:51:24.530Z,8.50
2022-12-16T09:54:15.130Z,7.80
2022-12-16T09:57:03.550Z,7.20
2022-12-16T09:59:58.570Z,7.65
2022-12-16T10:02:44.729Z,8.52
2022-12-16T10:05:40.808Z,9.68
2022-12-16T10:08:55.569Z,7.35
2022-12-16T10:11:49.281Z,6.70
2022-12-16T10:14:46.293Z,8.52
2022-12-16T10:17:40.678Z,8.35
2022-12-16T10:20:44.535Z,7.97
2022-12-16T10:23:41.966Z,6.95
2022-12-16T10:26:42.168Z,8.45
2022-12-16T10:29:43.769Z,9.27
2022-12-16T10:32:43.370Z,7.35
2022-12-16T10:38:28.223Z,7.07
2022-12-16T10:41:13.923Z,7.13
2022-12-16T10:44:05.178Z,7.40
2022-12-16T10:46:54.292Z,8.25
2022-12-16T10:49:41.489Z,8.20
2022-12-16T10:52:33.420Z,8.40
2022-12-16T10:55:35.705Z,6.78
2022-12-16T10:58:39.165Z,8.10
2022-12-16T11:01:41.195Z,7.95
2022-12-16T11:04:46.137Z,6.97
2022-12-16T11:07:51.569Z,7.15
2022-12-16T11:11:01.257Z,7.78
2022-12-16T11:13:49.401Z,7.53
2022-12-16T11:16:38.586Z,7.95
2022-12-16T11:19:39.213Z,8.35
2022-12-16T11:22:31.517Z,8.10
2022-12-16T11:25:46.313Z,8.30
2022-12-16T11:28:35.881Z,7.95
2022-12-16T11:31:33.283Z,7.07
2022-12-16T11:34:20.892Z,7.07
2022-12-16T11:37:28.347Z,7.55
2022-12-16T11:40:13.817Z,6.53
2022-12-16T11:43:03.017Z,7.38
2022-12-16T11:45:54.083Z,6.82
2022-12-16T11:48:55.907Z,7.13
2022-12-16T11:51:45.647Z,7.82
2022-12-16T11:57:26.122Z,8.23
2022-12-16T12:00:17.517Z,7.10
2022-12-16T12:03:11.022Z,7.72
2022-12-16T12:06:00.743Z,8.48
2022-12-16T12:08:55.874Z,7.63
2022-12-16T12:11:54.250Z,7.75
2022-12-16T12:15:07.408Z,6.70
2022-12-16T12:17:58.983Z,7.53
2022-12-16T12:20:59.280Z,8.85
2022-12-16T12:23:54.987Z,7.88
2022-12-16T12:26:51.922Z,7.50
2022-12-16T12:29:38.204Z,7.93
2022-12-16T12:32:42.896Z,8.10
2022-12-16T12:35:40.623Z,7.13
2022-12-16T12:38:48.608Z,7.07
2022-12-16T12:41:47.430Z,8.10
2022-12-16T12:45:02.612Z,6.07
2022-12-16T12:47:49.823Z,9.68
2022-12-16T12:50:47.306Z,8.05
2022-12-16T12:54:00.284Z,8.10
2022-12-16T12:57:09.029Z,7.50
2022-12-16T13:00:23.204Z,7.95
2022-12-16T13:03:34.300Z,7.07
2022-12-16T13:06:20.580Z,7.28
2022-12-16T13:09:08.825Z,8.07
2022-12-16T13:12:18.252Z,8.30
2022-12-16T13:15:06.256Z,6.95
2022-12-16T13:18:20.457Z,7.38
2022-12-16T13:21:13.548Z,6.85
2022-12-16T13:24:03.949Z,6.85
2022-12-16T13:26:52.743Z,7.05
2022-12-16T13:29:47.710Z,5.67
2022-12-16T13:32:45.492Z,6.80
2022-12-16T13:35:32.003Z,10.40
2022-12-16T13:38:37.773Z,8.00
2022-12-16T13:41:25.851Z,7.55
2022-12-16T13:44:11.225Z,6.90
2022-12-16T13:47:08.134Z,6.82
2022-12-16T13:49:56.445Z,7.15
2022-12-16T13:53:16.247Z,7.38
2022-12-16T13:56:13.165Z,8.25
2022-12-16T13:59:02.592Z,7.28
2022-12-16T14:02:06.848Z,8.10
2022-12-16T14:05:08.438Z,6.82
2022-12-16T14:07:57.784Z,7.00
2022-12-16T14:10:53.366Z,7.28
2022-12-16T14:14:04.748Z,7.88
2022-12-16T14:17:11.136Z,7.72
2022-12-16T14:20:18.231Z,7.70
2022-12-16T14:23:55.992Z,8.05
2022-12-16T14:26:36.803Z,7.40
2022-12-16T14:29:32.536Z,6.65
2022-12-16T14:32:19.182Z,6.93
2022-12-16T14:35:04.213Z,6.80
2022-12-16T14:37:54.937Z,7.82
2022-12-16T14:40:58.408Z,6.93
2022-12-16T14:43:44.597Z,7.03
2022-12-16T14:46:50.730Z,7.28
2022-12-16T14:49:45.107Z,6.07
2022-12-16T14:52:38.486Z,6.85
2022-12-16T14:55:35.273Z,6.25
2022-12-16T14:58:28.991Z,6.28
2022-12-16T15:01:18.494Z,9.65
2022-12-16T15:07:02.091Z,6.70
2022-12-16T15:09:57.171Z,7.43
2022-12-16T15:12:46.464Z,7.10
2022-12-16T15:15:44.237Z,7.00
2022-12-16T15:18:37.081Z,6.57
2022-12-16T15:21:22.764Z,7.75
2022-12-16T15:24:08.095Z,7.00
2022-12-16T15:26:53.749Z,8.65
2022-12-16T15:29:51.126Z,7.32
2022-12-16T15:32:54.415Z,9.50
2022-12-16T15:35:42.774Z,7.93
2022-12-16T15:38:33.850Z,7.22
2022-12-16T15:41:24.613Z,7.30
2022-12-16T15:44:10.938Z,7.30
2022-12-16T15:46:56.637Z,7.35
2022-12-16T15:49:51.503Z,8.40
2022-12-16T15:52:49.060Z,7.47
2022-12-16T15:55:50.347Z,7.68
2022-12-16T15:58:44.326Z,7.50
2022-12-16T16:01:32.553Z,10.13
2022-12-16T16:04:17.853Z,8.15
2022-12-16T16:07:09.992Z,6.88
2022-12-16T16:09:57.165Z,8.05
2022-12-16T16:12:43.819Z,8.40
2022-12-16T16:15:32.930Z,8.27
2022-12-16T16:18:38.535Z,11.02
2022-12-16T16:21:23.788Z,9.70
2022-12-16T16:24:08.642Z,8.75
2022-12-16T16:26:53.830Z,7.88
2022-12-16T16:29:38.961Z,7.20
2022-12-16T16:32:24.578Z,8.50
2022-12-16T16:35:09.795Z,7.38
2022-12-16T16:37:55.179Z,7.82
2022-12-16T16:40:53.667Z,8.38
2022-12-16T16:43:38.817Z,7.15
2022-12-16T16:46:39.484Z,8.80
2022-12-16T16:49:30.784Z,17.05
2022-12-16T16:52:16.197Z,9.80
2022-12-16T16:55:01.461Z,9.13
2022-12-16T16:57:51.739Z,8.73
2022-12-16T17:00:36.969Z,9.43
2022-12-16T17:03:22.687Z,7.32
2022-12-16T17:06:07.959Z,8.40
2022-12-16T17:08:53.186Z,8.88
2022-12-16T17:11:40.948Z,8.10
2022-12-16T17:14:32.581Z,8.35
2022-12-16T17:17:18.225Z,7.78
2022-12-16T17:20:04.013Z,8.23
2022-12-16T17:22:49.863Z,9.07
2022-12-16T17:25:35.443Z,8.88
2022-12-16T17:28:21.648Z,8.32
2022-12-16T17:31:06.832Z,9.35
2022-12-16T17:33:52.070Z,8.07
2022-12-16T17:36:37.705Z,9.00
2022-12-16T17:39:24.025Z,8.57
2022-12-16T17:42:09.621Z,9.02
2022-12-16T17:44:54.491Z,8.73
2022-12-16T17:47:41.397Z,9.10
2022-12-16T17:50:27.339Z,9.27
2022-12-16T17:53:14.438Z,9.48
2022-12-16T17:56:00.186Z,10.45
2022-12-16T17:58:52.786Z,10.13
2022-12-16T18:01:38.719Z,9.18
2022-12-16T18:04:24.709Z,10.27
2022-12-16T18:07:10.375Z,9.48
2022-12-16T18:09:55.565Z,10.50
2022-12-16T18:12:41.603Z,10.25
2022-12-16T18:15:27.431Z,9.15
2022-12-16T18:18:12.697Z,10.18
2022-12-16T18:20:58.043Z,9.30
2022-12-16T18:23:43.225Z,9.88
2022-12-16T18:26:29.551Z,9.40
2022-12-16T18:29:15.328Z,9.38
2022-12-16T18:32:00.563Z,10.93
2022-12-16T18:34:45.939Z,10.20
2022-12-16T18:37:31.707Z,9.65
2022-12-16T18:40:17.556Z,9.13
2022-12-16T18:43:03.028Z,9.30
2022-12-16T18:45:51.304Z,18.23
2022-12-16T18:48:36.394Z,12.68
2022-12-16T18:51:22.239Z,11.27
2022-12-16T18:54:09.199Z,12.20
2022-12-16T18:56:54.604Z,9.52
2022-12-16T18:59:39.790Z,11.18
2022-12-16T19:02:25.512Z,10.38
2022-12-16T19:05:11.238Z,9.68
2022-12-16T19:07:56.540Z,10.15
2022-12-16T19:10:41.891Z,9.88
2022-12-16T19:13:32.398Z,10.57
2022-12-16T19:16:17.673Z,11.23
2022-12-16T19:19:03.040Z,10.25
2022-12-16T19:24:55.027Z,11.05
2022-12-16T19:27:42.023Z,12.30
2022-12-16T19:30:28.582Z,11.50
2022-12-16T19:33:13.978Z,11.40
2022-12-16T19:35:59.571Z,11.23
2022-12-16T19:38:44.772Z,10.93
2022-12-16T19:41:34.509Z,10.07
2022-12-16T19:44:20.274Z,10.18
2022-12-16T19:47:05.736Z,11.18
2022-12-16T19:49:54.780Z,11.13
2022-12-16T19:52:42.091Z,11.55
2022-12-16T19:55:27.413Z,9.68
2022-12-16T19:58:12.826Z,9.70
2022-12-16T20:01:01.398Z,11.18
2022-12-16T20:03:47.727Z,12.93
2022-12-16T20:06:33.607Z,11.32
2022-12-16T20:09:19.687Z,12.02
2022-12-16T20:12:09.952Z,12.18
2022-12-16T20:14:56.560Z,11.90
2022-12-16T20:17:44.167Z,13.95
2022-12-16T20:20:29.845Z,14.00
2022-12-16T20:23:15.208Z,13.63
2022-12-16T20:26:00.919Z,13.70
2022-12-16T20:28:46.369Z,12.35
2022-12-16T20:31:31.785Z,14.90
2022-12-16T20:34:23.278Z,14.45
2022-12-16T20:37:08.691Z,13.65
2022-12-16T20:39:56.409Z,13.93
2022-12-16T20:43:00.601Z,12.77
2022-12-16T20:45:48.299Z,11.38
2022-12-16T20:48:34.911Z,12.95
2022-12-16T20:51:26.530Z,11.82
2022-12-16T20:54:14.267Z,11.82
2022-12-16T20:56:59.877Z,11.70
2022-12-16T20:59:44.931Z,13.45
2022-12-16T21:05:37.128Z,12.82
2022-12-16T21:08:22.531Z,11.48
2022-12-16T21:11:08.025Z,11.88
2022-12-16T21:13:56.358Z,11.45
2022-12-16T21:16:41.955Z,11.55
2022-12-16T21:19:33.093Z,11.60
2022-12-16T21:22:18.795Z,9.98
2022-12-16T21:25:04.044Z,11.98
2022-12-16T21:27:49.292Z,11.10
2022-12-16T21:30:34.476Z,11.85
2022-12-16T21:33:19.799Z,11.63
2022-12-16T21:36:14.276Z,11.02
2022-12-16T21:39:00.127Z,12.00
2022-12-16T21:41:45.686Z,11.73
2022-12-16T21:44:30.938Z,12.77
2022-12-16T21:47:16.091Z,11.52
2022-12-16T21:50:01.698Z,10.80
2022-12-16T21:52:46.965Z,10.98
2022-12-16T21:55:35.513Z,11.10
2022-12-16T21:58:31.928Z,11.63
2022-12-16T22:01:18.315Z,11.15
2022-12-16T22:04:09.677Z,11.77
2022-12-16T22:06:55.154Z,11.05
2022-12-16T22:09:42.356Z,11.85
2022-12-16T22:12:28.013Z,12.10
2022-12-16T22:15:13.368Z,11.52
2022-12-16T22:17:59.086Z,10.75
2022-12-16T22:20:45.603Z,12.35
2022-12-16T22:23:31.056Z,11.88
2022-12-16T22:26:18.605Z,12.73
2022-12-16T22:29:07.221Z,11.57
2022-12-16T22:31:58.373Z,11.23
2022-12-16T22:34:43.708Z,11.30
2022-12-16T22:37:31.439Z,12.20
2022-12-16T22:40:17.264Z,11.32
2022-12-16T22:43:02.646Z,12.15
2022-12-16T22:45:47.848Z,11.35
2022-12-16T22:48:35.856Z,13.48
2022-12-16T22:51:21.433Z,12.23
2022-12-16T22:54:07.731Z,12.00
2022-12-16T22:56:56.332Z,11.95
2022-12-16T22:59:42.407Z,12.38
2022-12-16T23:02:28.342Z,12.60
2022-12-16T23:05:14.490Z,12.18
2022-12-16T23:08:01.616Z,12.43
2022-12-16T23:10:59.172Z,13.15
2022-12-16T23:13:45.618Z,13.13
2022-12-16T23:16:31.029Z,11.82
2022-12-16T23:19:16.283Z,12.13
2022-12-16T23:22:02.030Z,12.15
2022-12-16T23:25:07.021Z,12.25
2022-12-16T23:27:52.238Z,11.82
2022-12-16T23:30:37.967Z,12.20
2022-12-16T23:33:23.037Z,13.15
2022-12-16T23:36:08.360Z,12.95
2022-12-16T23:38:53.802Z,11.93
2022-12-16T23:41:41.552Z,11.68
2022-12-16T23:44:26.663Z,11.63
2022-12-16T23:47:11.926Z,14.30
2022-12-16T23:49:57.191Z,12.65
2022-12-16T23:52:42.416Z,12.13
2022-12-16T23:55:28.534Z,11.77
2022-12-16T23:58:21.251Z,12.35
